Monkton, Maryland
Current Conditions -  °F | °C
As of 6:45 AM on Thursday 23 Oct 2014 (Local Time) from KMTN Reporting Station
Broken Clouds Broken Clouds  
Wind Chill: 55°   Ceiling: 4200
Heat Index: 55°   Visibility: 10mi
Dew Point: 46°   Wind: 14mph
Humidity: 72%   Direction: 310°NW
Pressure: 29.86"   Gusts: 24mph
Location:  39.58°N, 76.61°W
Report Text: KMTN 231045Z 31012G21KT 10SM BKN042 BKN070 13/08 A2986
Loading
Personal Weather Stations






























Interactive Weather Map New forecast layout! Learn more

10-Day Weather Forecast

Advertisements
Track Severe Weather on mobile